createdAt,value
2023-03-16T00:02:05.731Z,3.67
2023-03-16T00:07:10.841Z,4.47
2023-03-16T00:12:17.164Z,4.10
2023-03-16T00:17:21.497Z,4.03
2023-03-16T00:22:26.785Z,4.33
2023-03-16T00:27:31.473Z,5.53
2023-03-16T00:32:37.032Z,5.20
2023-03-16T00:37:40.387Z,3.90
2023-03-16T00:42:44.640Z,3.73
2023-03-16T00:47:47.526Z,3.60
2023-03-16T00:52:53.671Z,4.10
2023-03-16T00:57:57.970Z,4.60
2023-03-16T01:03:00.966Z,3.77
2023-03-16T01:08:04.329Z,3.97
2023-03-16T01:13:08.736Z,4.57
2023-03-16T01:18:13.371Z,3.60
2023-03-16T01:23:16.576Z,3.90
2023-03-16T01:28:21.735Z,3.60
2023-03-16T01:33:26.742Z,5.00
2023-03-16T01:38:30.088Z,3.80
2023-03-16T01:43:37.482Z,4.07
2023-03-16T01:48:44.859Z,4.03
2023-03-16T01:53:49.983Z,4.70
2023-03-16T01:58:58.990Z,4.67
2023-03-16T02:04:13.454Z,4.77
2023-03-16T02:09:17.815Z,4.67
2023-03-16T02:14:22.174Z,4.80
2023-03-16T02:19:39.333Z,4.77
2023-03-16T02:24:43.234Z,4.13
2023-03-16T02:30:02.397Z,4.03
2023-03-16T02:35:12.994Z,3.87
2023-03-16T02:40:23.660Z,4.07
2023-03-16T02:45:34.533Z,4.50
2023-03-16T02:50:46.915Z,4.53
2023-03-16T02:55:50.072Z,5.07
2023-03-16T03:00:55.173Z,4.00
2023-03-16T03:05:58.084Z,4.03
2023-03-16T03:11:01.388Z,4.50
2023-03-16T03:16:06.048Z,4.20
2023-03-16T03:21:09.088Z,3.80
2023-03-16T03:26:11.962Z,3.80
2023-03-16T03:31:17.687Z,3.93
2023-03-16T03:36:22.231Z,3.83
2023-03-16T03:41:26.096Z,3.97
2023-03-16T03:46:31.561Z,3.83
2023-03-16T03:51:34.901Z,3.60
2023-03-16T03:56:48.689Z,4.13
2023-03-16T04:01:54.695Z,4.30
2023-03-16T04:07:00.339Z,4.77
2023-03-16T04:12:03.705Z,3.40
2023-03-16T04:17:08.273Z,4.10
2023-03-16T04:22:13.693Z,3.83
2023-03-16T04:27:16.730Z,3.87
2023-03-16T04:32:23.124Z,3.20
2023-03-16T04:37:26.333Z,3.17
2023-03-16T04:42:29.757Z,2.77
2023-03-16T04:47:34.835Z,2.90
2023-03-16T04:52:37.771Z,4.07
2023-03-16T04:57:40.877Z,4.33
2023-03-16T05:02:45.356Z,4.33
2023-03-16T05:07:49.237Z,3.70
2023-03-16T05:12:53.553Z,3.17
2023-03-16T05:17:58.295Z,3.17
2023-03-16T05:23:02.024Z,3.70
2023-03-16T05:28:09.221Z,6.13
2023-03-16T05:33:25.676Z,5.20
2023-03-16T05:38:36.860Z,4.17
2023-03-16T05:43:40.830Z,3.43
2023-03-16T05:48:45.368Z,3.07
2023-03-16T05:53:50.922Z,3.50
2023-03-16T05:59:04.446Z,3.00
2023-03-16T06:04:09.393Z,2.70
2023-03-16T06:09:16.368Z,2.60
2023-03-16T06:14:19.522Z,4.00
2023-03-16T06:19:24.282Z,5.10
2023-03-16T06:24:32.993Z,5.60
2023-03-16T06:29:36.200Z,5.07
2023-03-16T06:34:41.725Z,5.30
2023-03-16T06:39:45.750Z,5.80
2023-03-16T06:44:49.228Z,5.13
2023-03-16T06:49:55.279Z,5.60
2023-03-16T06:55:01.204Z,5.23
2023-03-16T07:00:08.766Z,5.80
2023-03-16T07:05:14.209Z,4.83
2023-03-16T07:10:19.533Z,5.30
2023-03-16T07:15:22.660Z,5.87
2023-03-16T07:20:30.395Z,5.50
2023-03-16T07:25:35.259Z,4.80
2023-03-16T07:30:40.463Z,4.30
2023-03-16T07:35:47.524Z,5.20
2023-03-16T07:40:52.197Z,5.50
2023-03-16T07:45:58.347Z,4.90
2023-03-16T07:51:03.312Z,5.70
2023-03-16T07:56:07.713Z,5.47
2023-03-16T08:01:13.459Z,6.80
2023-03-16T08:06:18.159Z,5.73
2023-03-16T08:11:24.563Z,5.53
2023-03-16T08:16:32.942Z,6.77
2023-03-16T08:21:49.723Z,6.73
2023-03-16T08:27:01.407Z,5.30
2023-03-16T08:32:07.196Z,5.80
2023-03-16T08:37:17.847Z,5.07
2023-03-16T08:42:22.504Z,5.80
2023-03-16T08:47:31.015Z,5.00
2023-03-16T08:52:37.418Z,4.20
2023-03-16T08:57:40.370Z,4.77
2023-03-16T09:02:43.802Z,4.30
2023-03-16T09:07:49.111Z,3.80
2023-03-16T09:12:52.619Z,3.63
2023-03-16T09:17:57.344Z,1.90
2023-03-16T09:23:01.656Z,1.87
2023-03-16T09:28:04.565Z,2.60
2023-03-16T09:33:07.733Z,1.57
2023-03-16T09:38:12.749Z,1.20
2023-03-16T09:43:27.011Z,1.60
2023-03-16T09:48:32.925Z,1.13
2023-03-16T09:53:40.159Z,1.40
2023-03-16T09:58:43.913Z,1.90
2023-03-16T10:04:03.343Z,1.50
2023-03-16T10:09:22.781Z,1.70
2023-03-16T10:14:31.554Z,1.57
2023-03-16T10:19:42.049Z,1.20
2023-03-16T10:24:57.476Z,1.90
2023-03-16T10:30:01.289Z,1.90
2023-03-16T10:35:08.233Z,1.63
2023-03-16T10:40:13.486Z,1.77
2023-03-16T10:45:27.412Z,1.63
2023-03-16T10:50:32.010Z,1.47
2023-03-16T10:55:44.918Z,1.30
2023-03-16T11:00:47.872Z,1.50
2023-03-16T11:05:58.767Z,1.70
2023-03-16T11:11:11.856Z,1.63
2023-03-16T11:16:30.630Z,2.10
2023-03-16T11:21:43.021Z,1.47
2023-03-16T11:26:54.230Z,2.67
2023-03-16T11:32:01.655Z,2.20
2023-03-16T11:37:15.929Z,2.17
2023-03-16T11:42:29.836Z,2.03
2023-03-16T11:47:55.646Z,2.30
2023-03-16T11:53:05.125Z,2.33
2023-03-16T11:58:29.426Z,2.30
2023-03-16T12:03:50.239Z,1.93
2023-03-16T12:09:13.458Z,1.77
2023-03-16T12:14:24.474Z,1.70
2023-03-16T12:19:39.258Z,2.17
2023-03-16T12:24:45.417Z,1.63
2023-03-16T12:29:59.399Z,1.70
2023-03-16T12:35:12.114Z,1.80
2023-03-16T12:40:27.380Z,1.90
2023-03-16T12:45:38.682Z,1.47
2023-03-16T12:50:50.615Z,1.80
2023-03-16T12:55:53.788Z,1.50
2023-03-16T13:01:00.532Z,1.43
2023-03-16T13:06:03.858Z,3.90
2023-03-16T13:11:09.614Z,2.00
2023-03-16T13:16:27.309Z,1.73
2023-03-16T13:21:42.604Z,1.77
2023-03-16T13:26:48.570Z,1.50
2023-03-16T13:31:54.928Z,1.97
2023-03-16T13:37:01.497Z,1.80
2023-03-16T13:42:15.846Z,1.87
2023-03-16T13:47:21.276Z,2.87
2023-03-16T13:52:27.763Z,2.80
2023-03-16T13:57:33.167Z,1.97
2023-03-16T14:02:43.668Z,2.10
2023-03-16T14:07:48.665Z,2.00
2023-03-16T14:12:53.161Z,1.90
2023-03-16T14:18:14.684Z,2.17
2023-03-16T14:23:24.519Z,2.07
2023-03-16T14:28:32.421Z,2.40
2023-03-16T14:33:40.092Z,2.40
2023-03-16T14:38:44.624Z,2.77
2023-03-16T14:43:49.756Z,2.67
2023-03-16T14:49:01.209Z,2.80
2023-03-16T14:54:07.435Z,2.40
2023-03-16T14:59:10.459Z,2.80
2023-03-16T15:04:19.563Z,2.67
2023-03-16T15:09:35.824Z,3.43
2023-03-16T15:14:56.141Z,3.73
2023-03-16T15:20:00.528Z,4.10
2023-03-16T15:25:12.272Z,6.50
2023-03-16T15:30:18.434Z,4.60
2023-03-16T15:35:23.209Z,4.83
2023-03-16T15:40:29.068Z,5.50
2023-03-16T15:45:32.198Z,5.60
2023-03-16T15:50:37.792Z,6.40
2023-03-16T15:55:45.199Z,5.40
2023-03-16T16:00:49.517Z,5.23
2023-03-16T16:05:54.348Z,6.03
2023-03-16T16:10:57.656Z,5.57
2023-03-16T16:16:00.594Z,6.30
2023-03-16T16:21:07.105Z,6.90
2023-03-16T16:26:21.497Z,5.50
2023-03-16T16:31:25.607Z,6.80
2023-03-16T16:36:32.485Z,6.20
2023-03-16T16:41:36.835Z,5.80
2023-03-16T16:46:42.613Z,6.23
2023-03-16T16:51:47.534Z,6.00
2023-03-16T16:56:52.529Z,5.83
2023-03-16T17:01:56.546Z,5.63
2023-03-16T17:07:02.736Z,6.90
2023-03-16T17:12:16.348Z,6.33
2023-03-16T17:17:19.764Z,6.20
2023-03-16T17:22:28.275Z,8.70
2023-03-16T17:27:33.074Z,6.07
2023-03-16T17:32:36.001Z,5.97
2023-03-16T17:37:40.282Z,5.80
2023-03-16T17:42:43.184Z,5.47
2023-03-16T17:47:46.291Z,5.83
2023-03-16T17:52:50.780Z,9.60
2023-03-16T17:57:55.363Z,14.93
2023-03-16T18:03:00.908Z,10.57
2023-03-16T18:08:15.105Z,18.70
2023-03-16T18:13:22.599Z,8.90
2023-03-16T18:18:27.768Z,6.90
2023-03-16T18:23:34.656Z,6.30
2023-03-16T18:28:37.703Z,6.70
2023-03-16T18:33:42.405Z,7.03
2023-03-16T18:38:48.711Z,5.73
2023-03-16T18:43:53.238Z,6.10
2023-03-16T18:48:58.742Z,8.30
2023-03-16T18:54:03.888Z,9.50
2023-03-16T18:59:07.298Z,10.60
2023-03-16T19:04:19.810Z,21.60
2023-03-16T19:09:26.648Z,7.30
2023-03-16T19:14:33.060Z,7.70
2023-03-16T19:19:36.169Z,6.93
2023-03-16T19:24:46.640Z,12.03
2023-03-16T19:29:52.116Z,8.70
2023-03-16T19:34:55.471Z,6.83
2023-03-16T19:40:00.492Z,8.00
2023-03-16T19:45:04.349Z,10.50
2023-03-16T19:50:14.479Z,5.90
2023-03-16T19:55:22.510Z,7.67
2023-03-16T20:00:27.137Z,6.17
2023-03-16T20:05:33.035Z,7.63
2023-03-16T20:10:37.462Z,5.73
2023-03-16T20:15:40.664Z,5.30
2023-03-16T20:20:44.402Z,5.87
2023-03-16T20:25:51.070Z,4.80
2023-03-16T20:30:54.102Z,7.10
2023-03-16T20:35:57.677Z,4.93
2023-03-16T20:41:02.596Z,5.40
2023-03-16T20:46:06.670Z,4.97
2023-03-16T20:51:15.487Z,4.97
2023-03-16T20:56:21.825Z,4.10
2023-03-16T21:01:25.439Z,4.23
2023-03-16T21:06:30.236Z,4.50
2023-03-16T21:11:37.339Z,4.23
2023-03-16T21:16:40.641Z,4.20
2023-03-16T21:21:43.715Z,4.10
2023-03-16T21:26:48.462Z,4.33
2023-03-16T21:31:51.827Z,4.10
2023-03-16T21:36:54.993Z,5.23
2023-03-16T21:41:59.276Z,5.70
2023-03-16T21:47:02.289Z,4.73
2023-03-16T21:52:10.069Z,5.20
2023-03-16T21:57:15.417Z,5.30
2023-03-16T22:02:22.598Z,4.10
2023-03-16T22:07:25.854Z,4.20
2023-03-16T22:12:30.196Z,4.13
2023-03-16T22:17:33.530Z,5.20
2023-03-16T22:22:36.459Z,4.83
2023-03-16T22:27:41.416Z,4.80
2023-03-16T22:32:45.380Z,4.70
2023-03-16T22:37:48.386Z,4.97
2023-03-16T22:42:52.860Z,5.37
2023-03-16T22:47:57.389Z,4.80
2023-03-16T22:53:04.294Z,4.87
2023-03-16T22:58:15.902Z,4.90
2023-03-16T23:03:22.095Z,4.57
2023-03-16T23:08:26.672Z,4.90
2023-03-16T23:13:30.973Z,5.10
2023-03-16T23:18:34.862Z,4.73
2023-03-16T23:23:37.767Z,4.50
2023-03-16T23:28:43.346Z,4.90
2023-03-16T23:33:47.345Z,4.20
2023-03-16T23:38:51.787Z,4.40
2023-03-16T23:43:56.121Z,4.30
2023-03-16T23:49:02.496Z,4.47
2023-03-16T23:54:15.467Z,4.10
2023-03-16T23:59:20.934Z,4.20
